createdAt,value
2019-01-08T00:02:25.842Z,32.63
2019-01-08T00:04:55.645Z,30.47
2019-01-08T00:07:26.333Z,31.00
2019-01-08T00:09:56.118Z,30.40
2019-01-08T00:12:26.041Z,31.43
2019-01-08T00:14:55.976Z,31.63
2019-01-08T00:17:25.777Z,33.47
2019-01-08T00:19:55.403Z,36.03
2019-01-08T00:22:25.137Z,33.57
2019-01-08T00:24:54.831Z,35.33
2019-01-08T00:27:24.706Z,33.83
2019-01-08T00:29:54.415Z,37.53
2019-01-08T00:32:24.223Z,35.50
2019-01-08T00:34:54.042Z,38.63
2019-01-08T00:37:23.744Z,36.63
2019-01-08T00:39:53.523Z,38.67
2019-01-08T00:42:24.972Z,39.20
2019-01-08T00:44:54.674Z,36.97
2019-01-08T00:47:24.401Z,37.97
2019-01-08T00:49:54.523Z,39.20
2019-01-08T00:52:25.846Z,38.73
2019-01-08T00:54:55.707Z,35.87
2019-01-08T00:57:25.434Z,39.77
2019-01-08T00:59:55.144Z,41.03
2019-01-08T01:02:24.935Z,37.27
2019-01-08T01:04:54.717Z,39.73
2019-01-08T01:07:24.550Z,38.00
2019-01-08T01:09:54.786Z,37.20
2019-01-08T01:12:25.467Z,39.13
2019-01-08T01:14:55.247Z,38.30
2019-01-08T01:17:25.617Z,38.53
2019-01-08T01:19:55.789Z,37.43
2019-01-08T01:22:26.056Z,36.87
2019-01-08T01:24:55.884Z,35.40
2019-01-08T01:27:25.576Z,37.73
2019-01-08T01:29:55.315Z,33.87
2019-01-08T01:32:25.047Z,34.93
2019-01-08T01:34:54.769Z,37.27
2019-01-08T01:37:24.395Z,35.03
2019-01-08T01:39:54.228Z,37.47
2019-01-08T01:42:24.045Z,36.97
2019-01-08T01:44:54.795Z,36.63
2019-01-08T01:47:24.729Z,35.30
2019-01-08T01:49:54.654Z,38.33
2019-01-08T01:52:24.529Z,36.23
2019-01-08T01:54:54.336Z,36.57
2019-01-08T01:57:24.064Z,35.07
2019-01-08T01:59:53.818Z,36.37
2019-01-08T02:02:23.636Z,35.27
2019-01-08T02:04:54.733Z,36.20
2019-01-08T02:07:24.977Z,37.80
2019-01-08T02:09:54.709Z,34.30
2019-01-08T02:12:24.324Z,34.90
2019-01-08T02:14:54.062Z,38.87
2019-01-08T02:17:23.901Z,37.47
2019-01-08T02:19:53.702Z,37.93
2019-01-08T02:22:23.659Z,36.40
2019-01-08T02:24:53.432Z,34.80
2019-01-08T02:27:23.268Z,40.50
2019-01-08T02:29:53.080Z,35.57
2019-01-08T02:32:23.015Z,38.87
2019-01-08T02:34:52.722Z,39.23
2019-01-08T02:37:22.520Z,37.47
2019-01-08T02:39:52.255Z,39.03
2019-01-08T02:42:21.869Z,38.70
2019-01-08T02:44:51.623Z,40.40
2019-01-08T02:47:21.379Z,37.27
2019-01-08T02:49:51.335Z,36.83
2019-01-08T02:52:21.596Z,43.47
2019-01-08T02:54:51.269Z,40.53
2019-01-08T02:57:20.979Z,42.57
2019-01-08T02:59:50.698Z,40.23
2019-01-08T03:02:20.415Z,40.17
2019-01-08T03:04:51.966Z,41.10
2019-01-08T03:07:21.655Z,41.47
2019-01-08T03:09:51.385Z,41.80
2019-01-08T03:12:21.021Z,43.70
2019-01-08T03:14:50.744Z,43.20
2019-01-08T03:17:21.051Z,44.10
2019-01-08T03:19:50.917Z,43.53
2019-01-08T03:22:20.636Z,42.47
2019-01-08T03:24:50.368Z,43.87
2019-01-08T03:27:20.027Z,43.13
2019-01-08T03:29:49.718Z,42.67
2019-01-08T03:32:19.395Z,47.70
2019-01-08T03:34:49.117Z,44.53
2019-01-08T03:37:18.937Z,43.50
2019-01-08T03:39:48.734Z,44.47
2019-01-08T03:42:18.474Z,42.63
2019-01-08T03:44:48.177Z,48.07
2019-01-08T03:47:17.905Z,46.90
2019-01-08T03:49:47.525Z,47.93
2019-01-08T03:52:17.415Z,46.13
2019-01-08T03:54:47.189Z,47.07
2019-01-08T03:57:16.991Z,47.57
2019-01-08T03:59:46.672Z,46.60
2019-01-08T04:02:16.587Z,44.90
2019-01-08T04:04:46.300Z,46.37
2019-01-08T04:07:16.084Z,44.03
2019-01-08T04:09:46.162Z,42.10
2019-01-08T04:12:15.816Z,47.33
2019-01-08T04:14:45.543Z,44.77
2019-01-08T04:17:15.338Z,44.27
2019-01-08T04:19:44.970Z,39.90
2019-01-08T04:22:14.777Z,45.73
2019-01-08T04:24:44.511Z,44.20
2019-01-08T04:27:14.222Z,44.30
2019-01-08T04:29:50.399Z,42.30
2019-01-08T04:32:18.000Z,37.07
2019-01-08T04:34:47.709Z,39.33
2019-01-08T04:37:17.453Z,40.60
2019-01-08T04:39:47.295Z,40.37
2019-01-08T04:42:16.995Z,42.63
2019-01-08T04:44:46.717Z,42.10
2019-01-08T04:47:16.540Z,41.43
2019-01-08T04:49:46.318Z,41.57
2019-01-08T04:52:16.105Z,42.10
2019-01-08T04:54:45.924Z,44.27
2019-01-08T04:57:16.131Z,40.33
2019-01-08T04:59:46.372Z,40.33
2019-01-08T05:02:16.201Z,39.20
2019-01-08T05:04:45.921Z,40.60
2019-01-08T05:07:15.702Z,41.30
2019-01-08T05:09:45.591Z,42.13
2019-01-08T05:12:15.353Z,40.77
2019-01-08T05:14:45.053Z,39.83
2019-01-08T05:17:14.812Z,37.00
2019-01-08T05:19:44.647Z,37.07
2019-01-08T05:22:14.796Z,44.10
2019-01-08T05:24:44.480Z,41.53
2019-01-08T05:27:15.277Z,39.10
2019-01-08T05:29:45.037Z,39.57
2019-01-08T05:32:14.749Z,40.10
2019-01-08T05:34:44.562Z,41.30
2019-01-08T05:37:14.330Z,39.70
2019-01-08T05:39:44.181Z,39.93
2019-01-08T05:42:13.981Z,43.43
2019-01-08T05:44:43.704Z,41.27
2019-01-08T05:47:13.305Z,38.93
2019-01-08T05:49:43.112Z,42.07
2019-01-08T05:52:12.886Z,40.47
2019-01-08T05:54:42.468Z,41.67
2019-01-08T05:57:12.093Z,40.53
2019-01-08T05:59:41.843Z,40.03
2019-01-08T06:02:11.604Z,40.17
2019-01-08T06:04:41.576Z,41.43
2019-01-08T06:07:11.982Z,42.10
2019-01-08T06:09:41.666Z,45.57
2019-01-08T06:12:11.490Z,43.17
2019-01-08T06:14:41.322Z,44.23
2019-01-08T06:17:11.096Z,44.67
2019-01-08T06:19:40.880Z,48.77
2019-01-08T06:22:10.675Z,46.43
2019-01-08T06:24:40.492Z,46.97
2019-01-08T06:27:10.276Z,46.47
2019-01-08T06:29:40.034Z,44.93
2019-01-08T06:32:09.845Z,47.20
2019-01-08T06:34:39.685Z,69.33
2019-01-08T06:37:09.334Z,51.70
2019-01-08T06:39:39.059Z,47.23
2019-01-08T06:42:08.734Z,51.33
2019-01-08T06:44:38.279Z,48.33
2019-01-08T06:47:08.347Z,44.37
2019-01-08T06:49:38.071Z,46.23
2019-01-08T06:52:08.006Z,44.50
2019-01-08T06:54:37.829Z,39.80
2019-01-08T06:57:07.500Z,40.77
2019-01-08T06:59:37.327Z,38.40
2019-01-08T07:02:07.185Z,42.13
2019-01-08T07:04:37.059Z,42.73
2019-01-08T07:07:06.784Z,43.53
2019-01-08T07:09:36.626Z,42.37
2019-01-08T07:12:06.405Z,43.00
2019-01-08T07:14:36.147Z,47.40
2019-01-08T07:17:06.005Z,44.57
2019-01-08T07:19:35.722Z,43.10
2019-01-08T07:22:05.465Z,45.73
2019-01-08T07:24:35.240Z,45.53
2019-01-08T07:27:04.932Z,42.97
2019-01-08T07:29:34.722Z,46.80
2019-01-08T07:32:04.459Z,47.50
2019-01-08T07:34:34.554Z,47.37
2019-01-08T07:37:04.427Z,46.23
2019-01-08T07:39:34.114Z,45.93
2019-01-08T07:42:03.854Z,42.70
2019-01-08T07:44:33.590Z,45.50
2019-01-08T07:47:03.319Z,46.90
2019-01-08T07:49:33.243Z,43.17
2019-01-08T07:52:02.976Z,44.37
2019-01-08T07:54:32.757Z,42.73
2019-01-08T07:57:02.560Z,42.13
2019-01-08T07:59:32.279Z,41.10
2019-01-08T08:02:02.026Z,41.83
2019-01-08T08:04:31.818Z,39.53
2019-01-08T08:07:01.612Z,42.60
2019-01-08T08:09:31.472Z,39.40
2019-01-08T08:12:01.247Z,37.90
2019-01-08T08:14:30.985Z,44.23
2019-01-08T08:17:01.273Z,40.67
2019-01-08T08:19:31.083Z,42.70
2019-01-08T08:22:00.826Z,43.97
2019-01-08T08:24:30.645Z,44.03
2019-01-08T08:27:00.452Z,42.60
2019-01-08T08:29:30.609Z,47.63
2019-01-08T08:32:00.470Z,47.63
2019-01-08T08:34:30.218Z,44.67
2019-01-08T08:36:59.899Z,47.60
2019-01-08T08:39:29.775Z,45.43
2019-01-08T08:41:59.654Z,53.50
2019-01-08T08:44:29.370Z,55.90
2019-01-08T08:46:59.204Z,50.70
2019-01-08T08:49:28.948Z,46.77
2019-01-08T08:51:58.592Z,47.83
2019-01-08T08:54:28.343Z,46.63
2019-01-08T08:56:58.083Z,50.87
2019-01-08T08:59:27.886Z,48.83
2019-01-08T09:01:58.131Z,47.90
2019-01-08T09:04:27.941Z,47.67
2019-01-08T09:06:57.704Z,46.90
2019-01-08T09:09:27.526Z,45.77
2019-01-08T09:11:57.342Z,53.40
2019-01-08T09:14:26.983Z,53.73
2019-01-08T09:16:56.709Z,45.93
2019-01-08T09:19:27.381Z,48.33
2019-01-08T09:21:57.183Z,47.13
2019-01-08T09:24:26.934Z,46.37
2019-01-08T09:26:56.641Z,49.77
2019-01-08T09:29:26.362Z,47.27
2019-01-08T09:31:56.202Z,49.70
2019-01-08T09:34:26.201Z,50.43
2019-01-08T09:36:55.983Z,46.33
2019-01-08T09:39:25.825Z,48.13
2019-01-08T09:41:55.635Z,48.03
2019-01-08T09:44:25.323Z,49.47
2019-01-08T09:46:55.229Z,51.00
2019-01-08T09:49:26.075Z,48.07
2019-01-08T09:51:55.922Z,45.80
2019-01-08T09:54:25.703Z,48.87
2019-01-08T09:56:55.441Z,53.13
2019-01-08T09:59:25.262Z,50.60
2019-01-08T10:01:55.061Z,48.27
2019-01-08T10:04:24.746Z,48.93
2019-01-08T10:06:54.585Z,51.20
2019-01-08T10:09:24.316Z,51.27
2019-01-08T10:11:54.113Z,50.10
2019-01-08T10:14:23.818Z,51.20
2019-01-08T10:16:53.705Z,49.20
2019-01-08T10:19:23.506Z,47.30
2019-01-08T10:21:53.345Z,50.47
2019-01-08T10:24:23.522Z,52.57
2019-01-08T10:26:53.280Z,48.23
2019-01-08T10:29:23.013Z,49.80
2019-01-08T10:31:52.813Z,52.77
2019-01-08T10:34:22.621Z,53.93
2019-01-08T10:36:52.424Z,51.07
2019-01-08T10:39:22.234Z,54.87
2019-01-08T10:41:51.927Z,54.57
2019-01-08T10:44:21.762Z,52.70
2019-01-08T10:46:51.524Z,51.73
2019-01-08T10:49:21.283Z,53.27
2019-01-08T10:51:51.094Z,53.70
2019-01-08T10:54:20.797Z,50.33
2019-01-08T10:56:50.506Z,59.77
2019-01-08T10:59:20.300Z,56.67
2019-01-08T11:01:50.194Z,49.13
2019-01-08T11:04:19.909Z,55.83
2019-01-08T11:06:49.833Z,50.40
2019-01-08T11:09:19.585Z,47.87
2019-01-08T11:11:49.355Z,51.73
2019-01-08T11:14:19.131Z,48.57
2019-01-08T11:16:50.515Z,50.27
2019-01-08T11:19:20.563Z,47.83
2019-01-08T11:21:50.183Z,54.60
2019-01-08T11:24:20.017Z,51.73
2019-01-08T11:26:49.887Z,50.63
2019-01-08T11:29:19.553Z,51.63
2019-01-08T11:31:49.410Z,51.07
2019-01-08T11:34:19.122Z,51.90
2019-01-08T11:36:48.834Z,48.43
2019-01-08T11:39:18.612Z,48.63
2019-01-08T11:41:48.310Z,49.37
2019-01-08T11:44:18.004Z,50.47
2019-01-08T11:46:47.822Z,48.20
2019-01-08T11:49:17.592Z,58.77
2019-01-08T11:51:47.288Z,53.10
2019-01-08T11:54:17.152Z,47.43
2019-01-08T11:56:46.955Z,46.60
2019-01-08T11:59:16.742Z,53.30
2019-01-08T12:01:47.304Z,49.13
2019-01-08T12:04:16.949Z,57.83
2019-01-08T12:06:46.762Z,59.40
2019-01-08T12:09:16.429Z,53.63
2019-01-08T12:11:46.160Z,50.07
2019-01-08T12:14:15.859Z,54.27
2019-01-08T12:16:45.670Z,55.13
2019-01-08T12:19:15.489Z,49.43
2019-01-08T12:21:45.260Z,49.40
2019-01-08T12:24:15.113Z,53.43
2019-01-08T12:26:45.137Z,55.90
2019-01-08T12:29:15.302Z,53.40
2019-01-08T12:31:45.521Z,54.53
2019-01-08T12:34:15.346Z,54.70
2019-01-08T12:36:45.102Z,64.53
2019-01-08T12:39:15.012Z,60.40
2019-01-08T12:41:44.838Z,63.67
2019-01-08T12:44:14.563Z,53.30
2019-01-08T12:46:44.393Z,51.63
2019-01-08T12:49:14.136Z,58.60
2019-01-08T12:51:43.938Z,54.47
2019-01-08T12:54:13.794Z,56.87
2019-01-08T12:56:43.579Z,49.17
2019-01-08T12:59:14.983Z,47.60
2019-01-08T13:01:44.813Z,52.57
2019-01-08T13:04:14.524Z,56.30
2019-01-08T13:06:44.309Z,51.77
2019-01-08T13:09:14.082Z,50.57
2019-01-08T13:11:43.825Z,53.27
2019-01-08T13:14:13.657Z,55.97
2019-01-08T13:16:44.046Z,51.47
2019-01-08T13:19:13.899Z,51.77
2019-01-08T13:21:43.664Z,52.37
2019-01-08T13:24:13.415Z,52.17
2019-01-08T13:26:43.396Z,50.30
2019-01-08T13:29:13.154Z,50.77
2019-01-08T13:31:42.963Z,53.13
2019-01-08T13:34:12.695Z,51.00
2019-01-08T13:36:42.415Z,49.87
2019-01-08T13:39:12.250Z,136.57
2019-01-08T13:41:42.076Z,57.53
2019-01-08T13:44:13.455Z,50.47
2019-01-08T13:46:43.195Z,48.47
2019-01-08T13:49:12.912Z,54.73
2019-01-08T13:51:42.693Z,50.40
2019-01-08T13:54:12.472Z,51.40
2019-01-08T13:56:42.313Z,55.00
2019-01-08T13:59:12.493Z,50.17
2019-01-08T14:01:42.260Z,52.83
2019-01-08T14:04:11.915Z,48.43
2019-01-08T14:06:41.695Z,50.30
2019-01-08T14:09:11.513Z,53.07
2019-01-08T14:11:41.311Z,50.67
2019-01-08T14:14:11.152Z,51.80
2019-01-08T14:16:41.019Z,51.53
2019-01-08T14:19:10.733Z,48.30
2019-01-08T14:21:40.701Z,50.97
2019-01-08T14:24:10.550Z,49.53
2019-01-08T14:26:40.343Z,47.97
2019-01-08T14:29:10.096Z,53.93
2019-01-08T14:31:39.910Z,49.17
2019-01-08T14:34:09.763Z,54.67
2019-01-08T14:36:39.905Z,53.30
2019-01-08T14:39:09.739Z,57.57
2019-01-08T14:41:39.541Z,57.37
2019-01-08T14:44:09.331Z,48.80
2019-01-08T14:46:39.139Z,54.77
2019-01-08T14:49:08.940Z,57.87
2019-01-08T14:51:38.743Z,75.43
2019-01-08T14:54:08.425Z,57.07
2019-01-08T14:56:38.264Z,55.77
2019-01-08T14:59:08.139Z,54.87
2019-01-08T15:01:37.857Z,60.17
2019-01-08T15:04:07.677Z,55.10
2019-01-08T15:06:37.474Z,61.10
2019-01-08T15:09:07.686Z,55.07
2019-01-08T15:11:37.405Z,54.03
2019-01-08T15:14:07.124Z,52.83
2019-01-08T15:16:36.934Z,49.53
2019-01-08T15:19:06.723Z,53.17
2019-01-08T15:21:36.422Z,54.80
2019-01-08T15:24:06.543Z,54.23
2019-01-08T15:26:36.453Z,48.40
2019-01-08T15:29:06.278Z,53.63
2019-01-08T15:31:36.145Z,63.30
2019-01-08T15:34:05.980Z,52.97
2019-01-08T15:36:36.802Z,51.03
2019-01-08T15:39:07.199Z,49.87
2019-01-08T15:41:36.981Z,59.67
2019-01-08T15:44:14.969Z,53.53
2019-01-08T15:46:38.155Z,54.03
2019-01-08T15:49:07.981Z,52.10
2019-01-08T15:51:37.702Z,50.40
2019-01-08T15:54:07.500Z,52.43
2019-01-08T15:56:37.305Z,63.03
2019-01-08T15:59:07.102Z,57.70
2019-01-08T16:01:36.937Z,52.63
2019-01-08T16:04:06.707Z,51.13
2019-01-08T16:06:36.554Z,55.60
2019-01-08T16:09:07.365Z,58.73
2019-01-08T16:11:37.167Z,79.97
2019-01-08T16:14:06.868Z,64.73
2019-01-08T16:16:36.685Z,57.00
2019-01-08T16:19:06.524Z,55.53
2019-01-08T16:21:36.418Z,55.00
2019-01-08T16:24:06.715Z,56.53
2019-01-08T16:26:36.695Z,56.03
2019-01-08T16:29:06.496Z,57.17
2019-01-08T16:31:36.345Z,55.63
2019-01-08T16:34:06.231Z,56.47
2019-01-08T16:36:36.074Z,54.80
2019-01-08T16:39:07.984Z,55.40
2019-01-08T16:41:37.817Z,61.93
2019-01-08T16:44:07.643Z,64.67
2019-01-08T16:46:39.101Z,60.17
2019-01-08T16:49:09.483Z,62.20
2019-01-08T16:51:39.773Z,59.70
2019-01-08T16:54:09.672Z,62.37
2019-01-08T16:56:39.507Z,58.17
2019-01-08T16:59:09.341Z,55.13
2019-01-08T17:01:39.177Z,52.67
2019-01-08T17:04:09.000Z,52.17
2019-01-08T17:06:38.843Z,53.87
2019-01-08T17:09:09.160Z,59.57
2019-01-08T17:11:38.946Z,57.17
2019-01-08T17:14:08.777Z,57.70
2019-01-08T17:16:38.605Z,60.13
2019-01-08T17:19:08.471Z,59.17
2019-01-08T17:21:38.309Z,65.20
2019-01-08T17:24:08.180Z,61.67
2019-01-08T17:26:37.994Z,55.60
2019-01-08T17:29:07.838Z,57.17
2019-01-08T17:31:37.666Z,58.17
2019-01-08T17:34:07.527Z,57.10
2019-01-08T17:36:37.517Z,60.80
2019-01-08T17:39:08.033Z,61.30
2019-01-08T17:41:38.005Z,63.00
2019-01-08T17:44:07.837Z,64.13
2019-01-08T17:46:37.721Z,98.50
2019-01-08T17:49:07.707Z,63.17
2019-01-08T17:51:37.695Z,57.80
2019-01-08T17:54:07.581Z,57.33
2019-01-08T17:56:37.400Z,55.30
2019-01-08T17:59:09.719Z,60.20
2019-01-08T18:01:42.102Z,56.90
2019-01-08T18:04:12.862Z,58.10
2019-01-08T18:06:42.671Z,58.07
2019-01-08T18:09:12.811Z,54.80
2019-01-08T18:11:42.617Z,57.63
2019-01-08T18:14:12.451Z,61.47
2019-01-08T18:16:42.367Z,56.37
2019-01-08T18:19:12.208Z,60.13
2019-01-08T18:21:42.022Z,57.00
2019-01-08T18:24:12.016Z,64.47
2019-01-08T18:26:43.512Z,57.67
2019-01-08T18:29:13.340Z,58.50
2019-01-08T18:31:43.262Z,58.80
2019-01-08T18:34:13.060Z,59.37
2019-01-08T18:36:42.952Z,64.33
2019-01-08T18:39:13.074Z,65.80
2019-01-08T18:41:42.926Z,75.97
2019-01-08T18:44:12.902Z,69.50
2019-01-08T18:46:43.047Z,69.87
2019-01-08T18:49:12.893Z,58.13
2019-01-08T18:51:42.837Z,85.07
2019-01-08T18:54:12.684Z,67.53
2019-01-08T18:56:42.567Z,65.23
2019-01-08T18:59:15.480Z,63.97
2019-01-08T19:01:45.320Z,124.33
2019-01-08T19:04:15.148Z,100.27
2019-01-08T19:06:44.991Z,112.17
2019-01-08T19:09:26.705Z,109.03
2019-01-08T19:11:59.366Z,95.50
2019-01-08T19:14:32.287Z,91.77
2019-01-08T19:17:02.303Z,88.57
2019-01-08T19:19:32.515Z,85.13
2019-01-08T19:22:02.385Z,79.87
2019-01-08T19:24:32.371Z,78.43
2019-01-08T19:27:02.358Z,83.90
2019-01-08T19:29:32.226Z,79.53
2019-01-08T19:32:02.048Z,76.10
2019-01-08T19:34:32.169Z,78.10
2019-01-08T19:37:02.057Z,96.40
2019-01-08T19:39:31.902Z,69.40
2019-01-08T19:42:02.020Z,68.40
2019-01-08T19:44:31.871Z,100.47
2019-01-08T19:47:01.689Z,70.97
2019-01-08T19:49:31.996Z,66.67
2019-01-08T19:52:04.107Z,70.07
2019-01-08T19:54:36.475Z,66.87
2019-01-08T19:57:08.365Z,66.43
2019-01-08T19:59:38.285Z,68.90
2019-01-08T20:02:08.134Z,64.97
2019-01-08T20:04:37.970Z,64.00
2019-01-08T20:07:07.870Z,64.37
2019-01-08T20:09:40.292Z,65.23
2019-01-08T20:12:10.886Z,61.80
2019-01-08T20:14:40.763Z,67.70
2019-01-08T20:17:10.605Z,64.43
2019-01-08T20:19:40.450Z,64.97
2019-01-08T20:22:10.718Z,69.07
2019-01-08T20:24:42.198Z,67.03
2019-01-08T20:27:12.333Z,65.63
2019-01-08T20:29:42.232Z,66.93
2019-01-08T20:32:12.050Z,66.00
2019-01-08T20:34:43.822Z,67.73
2019-01-08T20:37:14.037Z,77.00
2019-01-08T20:39:47.652Z,73.03
2019-01-08T20:42:20.725Z,71.43
2019-01-08T20:44:50.710Z,65.80
2019-01-08T20:47:20.552Z,67.33
2019-01-08T20:49:50.315Z,75.10
2019-01-08T20:52:20.152Z,74.40
2019-01-08T20:54:49.982Z,71.47
2019-01-08T20:57:20.712Z,72.07
2019-01-08T20:59:50.600Z,63.20
2019-01-08T21:02:20.932Z,63.33
2019-01-08T21:04:50.714Z,55.83
2019-01-08T21:07:20.600Z,56.03
2019-01-08T21:09:50.455Z,52.93
2019-01-08T21:12:20.300Z,54.50
2019-01-08T21:14:50.167Z,54.40
2019-01-08T21:17:20.322Z,56.97
2019-01-08T21:19:50.182Z,53.57
2019-01-08T21:22:20.099Z,53.63
2019-01-08T21:24:49.936Z,51.33
2019-01-08T21:27:19.752Z,54.30
2019-01-08T21:29:49.596Z,54.13
2019-01-08T21:32:19.416Z,63.33
2019-01-08T21:34:49.277Z,67.80
2019-01-08T21:37:19.573Z,65.20
2019-01-08T21:39:50.407Z,62.37
2019-01-08T21:42:20.308Z,63.80
2019-01-08T21:44:50.137Z,63.37
2019-01-08T21:47:19.924Z,69.20
2019-01-08T21:49:49.784Z,66.83
2019-01-08T21:52:19.565Z,67.23
2019-01-08T21:54:49.387Z,60.30
2019-01-08T21:57:19.232Z,59.87
2019-01-08T21:59:49.052Z,59.63
2019-01-08T22:02:18.823Z,63.07
2019-01-08T22:04:53.266Z,59.47
2019-01-08T22:07:21.665Z,59.80
2019-01-08T22:09:54.052Z,60.47
2019-01-08T22:12:23.856Z,58.50
2019-01-08T22:14:56.253Z,59.80
2019-01-08T22:17:29.197Z,60.27
2019-01-08T22:19:58.985Z,60.47
2019-01-08T22:22:28.800Z,57.20
2019-01-08T22:25:01.108Z,59.07
2019-01-08T22:27:30.902Z,58.50
2019-01-08T22:30:04.624Z,56.37
2019-01-08T22:32:35.600Z,62.20
2019-01-08T22:35:05.885Z,53.90
2019-01-08T22:37:40.327Z,53.03
2019-01-08T22:40:12.788Z,60.10
2019-01-08T22:42:42.637Z,58.40
2019-01-08T22:45:12.376Z,55.03
2019-01-08T22:47:42.190Z,49.73
2019-01-08T22:50:12.044Z,57.53
2019-01-08T22:52:41.830Z,53.90
2019-01-08T22:55:11.594Z,52.97
2019-01-08T22:57:41.317Z,47.20
2019-01-08T23:00:15.409Z,48.20
2019-01-08T23:02:48.269Z,46.83
2019-01-08T23:05:17.961Z,46.03
2019-01-08T23:07:47.603Z,52.17
2019-01-08T23:10:17.478Z,48.93
2019-01-08T23:12:47.165Z,51.57
2019-01-08T23:15:16.884Z,47.13
2019-01-08T23:17:46.635Z,45.57
2019-01-08T23:20:16.403Z,40.50
2019-01-08T23:22:46.644Z,42.80
2019-01-08T23:25:16.523Z,43.57
2019-01-08T23:27:46.284Z,43.07
2019-01-08T23:30:15.983Z,43.40
2019-01-08T23:32:45.798Z,44.63
2019-01-08T23:35:19.636Z,42.60
2019-01-08T23:37:47.115Z,44.87
2019-01-08T23:40:16.937Z,41.83
2019-01-08T23:42:46.616Z,45.70
2019-01-08T23:45:16.349Z,43.70
2019-01-08T23:47:46.180Z,38.57
2019-01-08T23:50:15.907Z,44.23
2019-01-08T23:53:07.645Z,37.67
2019-01-08T23:55:41.717Z,40.70
2019-01-08T23:58:15.994Z,38.33
